sensor_id;sensor_type;location;lat;lon;timestamp;pressure;altitude;pressure_sealevel;temperature;humidity
6567;BME280;3317;43.994;22.878;2023-05-19T00:00:08;101258.66;;;17.46;73.19
6567;BME280;3317;43.994;22.878;2023-05-19T00:02:39;101246.22;;;17.43;73.21
6567;BME280;3317;43.994;22.878;2023-05-19T00:05:11;101234.00;;;17.31;73.12
6567;BME280;3317;43.994;22.878;2023-05-19T00:07:40;101230.78;;;17.27;72.87
6567;BME280;3317;43.994;22.878;2023-05-19T00:10:10;101217.16;;;17.19;72.79
6567;BME280;3317;43.994;22.878;2023-05-19T00:12:37;101240.31;;;17.31;72.88
6567;BME280;3317;43.994;22.878;2023-05-19T00:15:06;101241.38;;;17.30;72.93
6567;BME280;3317;43.994;22.878;2023-05-19T00:17:33;101236.94;;;17.29;72.52
6567;BME280;3317;43.994;22.878;2023-05-19T00:20:01;101235.22;;;17.28;72.42
6567;BME280;3317;43.994;22.878;2023-05-19T00:22:33;101211.78;;;17.11;72.42
6567;BME280;3317;43.994;22.878;2023-05-19T00:25:01;101233.91;;;17.24;72.01
6567;BME280;3317;43.994;22.878;2023-05-19T00:27:28;101237.47;;;17.25;72.09
6567;BME280;3317;43.994;22.878;2023-05-19T00:29:55;101237.69;;;17.23;71.85
6567;BME280;3317;43.994;22.878;2023-05-19T00:32:23;101245.03;;;17.23;71.86
6567;BME280;3317;43.994;22.878;2023-05-19T00:34:50;101238.72;;;17.22;71.84
6567;BME280;3317;43.994;22.878;2023-05-19T00:37:17;101240.13;;;17.18;71.62
6567;BME280;3317;43.994;22.878;2023-05-19T00:39:46;101249.00;;;17.20;71.44
6567;BME280;3317;43.994;22.878;2023-05-19T00:42:13;101248.53;;;17.16;71.48
6567;BME280;3317;43.994;22.878;2023-05-19T00:44:40;101245.31;;;17.13;71.34
6567;BME280;3317;43.994;22.878;2023-05-19T00:47:07;101243.97;;;17.09;71.61
6567;BME280;3317;43.994;22.878;2023-05-19T00:49:34;101245.00;;;17.08;71.53
6567;BME280;3317;43.994;22.878;2023-05-19T00:52:02;101250.00;;;17.04;71.79
6567;BME280;3317;43.994;22.878;2023-05-19T00:54:31;101236.50;;;17.02;71.19
6567;BME280;3317;43.994;22.878;2023-05-19T00:57:00;101253.31;;;16.99;71.63
6567;BME280;3317;43.994;22.878;2023-05-19T00:59:28;101242.69;;;16.96;71.40
6567;BME280;3317;43.994;22.878;2023-05-19T01:01:55;101247.69;;;16.93;71.66
6567;BME280;3317;43.994;22.878;2023-05-19T01:04:23;101190.06;;;16.63;71.86
6567;BME280;3317;43.994;22.878;2023-05-19T01:06:51;101246.16;;;16.90;71.97
6567;BME280;3317;43.994;22.878;2023-05-19T01:09:20;101235.81;;;16.77;72.34
6567;BME280;3317;43.994;22.878;2023-05-19T01:11:47;101246.69;;;16.85;71.95
6567;BME280;3317;43.994;22.878;2023-05-19T01:14:16;101226.38;;;16.80;72.38
6567;BME280;3317;43.994;22.878;2023-05-19T01:16:48;101234.22;;;16.83;72.41
6567;BME280;3317;43.994;22.878;2023-05-19T01:19:30;101229.78;;;16.82;72.29
6567;BME280;3317;43.994;22.878;2023-05-19T01:22:26;101229.78;;;16.82;71.77
6567;BME280;3317;43.994;22.878;2023-05-19T01:28:25;101220.63;;;16.74;72.41
6567;BME280;3317;43.994;22.878;2023-05-19T01:31:00;101232.97;;;16.70;72.51
6567;BME280;3317;43.994;22.878;2023-05-19T01:33:29;101227.66;;;16.69;72.30
6567;BME280;3317;43.994;22.878;2023-05-19T01:35:58;101223.78;;;16.63;72.91
6567;BME280;3317;43.994;22.878;2023-05-19T01:38:28;101203.50;;;16.49;73.22
6567;BME280;3317;43.994;22.878;2023-05-19T01:40:56;101235.09;;;16.60;73.28
6567;BME280;3317;43.994;22.878;2023-05-19T01:43:25;101226.22;;;16.58;73.10
6567;BME280;3317;43.994;22.878;2023-05-19T01:45:53;101225.34;;;16.57;73.21
6567;BME280;3317;43.994;22.878;2023-05-19T01:48:25;101231.00;;;16.56;72.97
6567;BME280;3317;43.994;22.878;2023-05-19T01:50:53;101201.03;;;16.39;73.07
6567;BME280;3317;43.994;22.878;2023-05-19T01:53:21;101234.09;;;16.53;73.16
6567;BME280;3317;43.994;22.878;2023-05-19T01:55:52;101227.97;;;16.51;72.94
6567;BME280;3317;43.994;22.878;2023-05-19T01:58:24;101224.94;;;16.45;72.85
6567;BME280;3317;43.994;22.878;2023-05-19T02:01:02;101236.34;;;16.49;73.22
6567;BME280;3317;43.994;22.878;2023-05-19T02:03:47;101176.28;;;16.09;73.37
6567;BME280;3317;43.994;22.878;2023-05-19T02:06:28;101249.19;;;16.49;73.46
6567;BME280;3317;43.994;22.878;2023-05-19T02:09:01;101226.38;;;16.33;73.24
6567;BME280;3317;43.994;22.878;2023-05-19T02:11:35;101255.69;;;16.47;73.32
6567;BME280;3317;43.994;22.878;2023-05-19T02:14:07;101249.22;;;16.40;72.91
6567;BME280;3317;43.994;22.878;2023-05-19T02:16:35;101249.34;;;16.47;72.89
6567;BME280;3317;43.994;22.878;2023-05-19T02:19:05;101251.41;;;16.45;72.93
6567;BME280;3317;43.994;22.878;2023-05-19T02:21:32;101244.78;;;16.39;73.00
6567;BME280;3317;43.994;22.878;2023-05-19T02:23:59;101198.66;;;16.04;72.93
6567;BME280;3317;43.994;22.878;2023-05-19T02:26:27;101263.22;;;16.45;72.87
6567;BME280;3317;43.994;22.878;2023-05-19T02:28:54;101254.03;;;16.38;71.87
6567;BME280;3317;43.994;22.878;2023-05-19T02:31:21;101210.78;;;16.10;72.10
6567;BME280;3317;43.994;22.878;2023-05-19T02:33:48;101262.22;;;16.38;72.74
6567;BME280;3317;43.994;22.878;2023-05-19T02:36:16;101275.41;;;16.35;72.73
6567;BME280;3317;43.994;22.878;2023-05-19T02:38:43;101257.38;;;16.25;72.77
6567;BME280;3317;43.994;22.878;2023-05-19T02:41:12;101283.13;;;16.31;72.92
6567;BME280;3317;43.994;22.878;2023-05-19T02:43:38;101276.13;;;16.28;73.32
6567;BME280;3317;43.994;22.878;2023-05-19T02:46:05;101273.78;;;16.25;73.24
6567;BME280;3317;43.994;22.878;2023-05-19T02:48:32;101276.50;;;16.25;73.35
6567;BME280;3317;43.994;22.878;2023-05-19T02:50:59;101262.19;;;16.15;73.50
6567;BME280;3317;43.994;22.878;2023-05-19T02:53:29;101280.59;;;16.21;73.43
6567;BME280;3317;43.994;22.878;2023-05-19T02:55:56;101265.09;;;16.13;73.71
6567;BME280;3317;43.994;22.878;2023-05-19T02:58:24;101280.47;;;16.14;73.65
6567;BME280;3317;43.994;22.878;2023-05-19T03:00:51;101285.03;;;16.22;73.18
6567;BME280;3317;43.994;22.878;2023-05-19T03:03:18;101291.53;;;16.21;73.32
6567;BME280;3317;43.994;22.878;2023-05-19T03:05:45;101276.75;;;16.07;73.18
6567;BME280;3317;43.994;22.878;2023-05-19T03:08:12;101225.22;;;15.79;73.10
6567;BME280;3317;43.994;22.878;2023-05-19T03:10:40;101293.78;;;16.17;73.27
6567;BME280;3317;43.994;22.878;2023-05-19T03:13:08;101286.28;;;16.19;72.90
6567;BME280;3317;43.994;22.878;2023-05-19T03:15:35;101273.66;;;16.10;72.84
6567;BME280;3317;43.994;22.878;2023-05-19T03:18:03;101276.38;;;16.10;73.11
6567;BME280;3317;43.994;22.878;2023-05-19T03:20:31;101299.75;;;16.21;73.05
6567;BME280;3317;43.994;22.878;2023-05-19T03:22:58;101298.91;;;16.21;72.58
6567;BME280;3317;43.994;22.878;2023-05-19T03:25:26;101306.25;;;16.20;72.92
6567;BME280;3317;43.994;22.878;2023-05-19T03:27:55;101303.72;;;16.18;73.29
6567;BME280;3317;43.994;22.878;2023-05-19T03:30:23;101307.28;;;16.19;73.21
6567;BME280;3317;43.994;22.878;2023-05-19T03:32:50;101302.16;;;16.16;72.66
6567;BME280;3317;43.994;22.878;2023-05-19T03:35:17;101296.50;;;16.17;72.93
6567;BME280;3317;43.994;22.878;2023-05-19T03:37:44;101297.72;;;16.15;73.54
6567;BME280;3317;43.994;22.878;2023-05-19T03:40:12;101306.47;;;16.10;73.64
6567;BME280;3317;43.994;22.878;2023-05-19T03:42:40;101308.69;;;16.07;73.55
6567;BME280;3317;43.994;22.878;2023-05-19T03:45:10;101318.06;;;16.12;73.15
6567;BME280;3317;43.994;22.878;2023-05-19T03:47:39;101309.88;;;16.04;73.16
6567;BME280;3317;43.994;22.878;2023-05-19T03:50:07;101312.59;;;16.12;73.47
6567;BME280;3317;43.994;22.878;2023-05-19T03:52:34;101320.13;;;16.10;74.18
6567;BME280;3317;43.994;22.878;2023-05-19T03:55:03;101318.25;;;16.11;74.36
6567;BME280;3317;43.994;22.878;2023-05-19T03:57:31;101328.34;;;16.10;74.22
6567;BME280;3317;43.994;22.878;2023-05-19T03:59:58;101322.88;;;16.10;74.24
6567;BME280;3317;43.994;22.878;2023-05-19T04:02:27;101325.59;;;16.10;74.66
6567;BME280;3317;43.994;22.878;2023-05-19T04:04:53;101322.88;;;16.10;74.00
6567;BME280;3317;43.994;22.878;2023-05-19T04:07:21;101320.81;;;16.04;73.89
6567;BME280;3317;43.994;22.878;2023-05-19T04:09:48;101337.03;;;16.14;73.93
6567;BME280;3317;43.994;22.878;2023-05-19T04:12:15;101323.69;;;16.11;74.00
6567;BME280;3317;43.994;22.878;2023-05-19T04:14:42;101329.00;;;16.12;74.18
6567;BME280;3317;43.994;22.878;2023-05-19T04:17:09;101315.34;;;16.04;74.25
6567;BME280;3317;43.994;22.878;2023-05-19T04:19:38;101339.78;;;16.14;74.37
6567;BME280;3317;43.994;22.878;2023-05-19T04:22:05;101336.19;;;16.13;74.54
6567;BME280;3317;43.994;22.878;2023-05-19T04:24:32;101343.00;;;16.17;74.90
6567;BME280;3317;43.994;22.878;2023-05-19T04:26:59;101339.25;;;16.18;75.06
6567;BME280;3317;43.994;22.878;2023-05-19T04:29:29;101339.94;;;16.21;74.61
6567;BME280;3317;43.994;22.878;2023-05-19T04:31:57;101338.91;;;16.22;74.66
6567;BME280;3317;43.994;22.878;2023-05-19T04:34:25;101336.84;;;16.24;75.09
6567;BME280;3317;43.994;22.878;2023-05-19T04:36:54;101336.84;;;16.24;75.35
6567;BME280;3317;43.994;22.878;2023-05-19T04:39:21;101342.97;;;16.26;75.09
6567;BME280;3317;43.994;22.878;2023-05-19T04:41:48;101344.69;;;16.27;75.27
6567;BME280;3317;43.994;22.878;2023-05-19T04:44:16;101321.13;;;16.17;75.87
6567;BME280;3317;43.994;22.878;2023-05-19T04:46:43;101343.66;;;16.28;75.69
6567;BME280;3317;43.994;22.878;2023-05-19T04:49:10;101327.59;;;16.25;75.91
6567;BME280;3317;43.994;22.878;2023-05-19T04:51:38;101342.28;;;16.32;76.05
6567;BME280;3317;43.994;22.878;2023-05-19T04:54:07;101342.09;;;16.33;75.73
6567;BME280;3317;43.994;22.878;2023-05-19T04:56:34;101338.97;;;16.37;75.95
6567;BME280;3317;43.994;22.878;2023-05-19T04:59:01;101339.69;;;16.39;75.78
6567;BME280;3317;43.994;22.878;2023-05-19T05:01:28;101339.31;;;16.42;76.02
6567;BME280;3317;43.994;22.878;2023-05-19T05:03:58;101343.25;;;16.39;76.44
6567;BME280;3317;43.994;22.878;2023-05-19T05:06:27;101350.78;;;16.45;76.73
6567;BME280;3317;43.994;22.878;2023-05-19T05:08:54;101355.88;;;16.49;76.80
6567;BME280;3317;43.994;22.878;2023-05-19T05:11:23;101342.88;;;16.51;76.70
6567;BME280;3317;43.994;22.878;2023-05-19T05:13:50;101334.16;;;16.47;76.77
6567;BME280;3317;43.994;22.878;2023-05-19T05:16:18;101345.06;;;16.55;76.69
6567;BME280;3317;43.994;22.878;2023-05-19T05:18:45;101340.25;;;16.57;77.10
6567;BME280;3317;43.994;22.878;2023-05-19T05:21:13;101341.81;;;16.60;77.30
6567;BME280;3317;43.994;22.878;2023-05-19T05:23:41;101338.03;;;16.61;77.44
6567;BME280;3317;43.994;22.878;2023-05-19T05:26:12;101326.09;;;16.54;77.26
6567;BME280;3317;43.994;22.878;2023-05-19T05:28:43;101351.66;;;16.69;77.25
6567;BME280;3317;43.994;22.878;2023-05-19T05:31:11;101347.53;;;16.73;77.83
6567;BME280;3317;43.994;22.878;2023-05-19T05:33:38;101358.63;;;16.80;77.90
6567;BME280;3317;43.994;22.878;2023-05-19T05:36:06;101363.56;;;16.85;77.92
6567;BME280;3317;43.994;22.878;2023-05-19T05:38:33;101351.22;;;16.89;77.91
6567;BME280;3317;43.994;22.878;2023-05-19T05:41:02;101359.38;;;16.97;77.17
6567;BME280;3317;43.994;22.878;2023-05-19T05:43:29;101363.47;;;17.01;77.25
6567;BME280;3317;43.994;22.878;2023-05-19T05:45:59;101363.44;;;17.10;76.90
6567;BME280;3317;43.994;22.878;2023-05-19T05:48:26;101341.41;;;17.03;76.64
6567;BME280;3317;43.994;22.878;2023-05-19T05:50:55;101365.38;;;17.24;76.62
6567;BME280;3317;43.994;22.878;2023-05-19T05:53:24;101355.38;;;17.31;76.35
6567;BME280;3317;43.994;22.878;2023-05-19T05:55:52;101361.84;;;17.39;76.56
6567;BME280;3317;43.994;22.878;2023-05-19T05:58:19;101355.97;;;17.42;76.25
6567;BME280;3317;43.994;22.878;2023-05-19T06:00:46;101358.94;;;17.55;76.11
6567;BME280;3317;43.994;22.878;2023-05-19T06:03:18;101369.63;;;17.65;75.79
6567;BME280;3317;43.994;22.878;2023-05-19T06:05:48;101368.53;;;17.74;75.33
6567;BME280;3317;43.994;22.878;2023-05-19T06:08:17;101367.97;;;17.79;75.25
6567;BME280;3317;43.994;22.878;2023-05-19T06:10:45;101373.50;;;17.94;74.97
6567;BME280;3317;43.994;22.878;2023-05-19T06:13:13;101371.34;;;18.05;74.96
6567;BME280;3317;43.994;22.878;2023-05-19T06:15:45;101373.59;;;18.16;74.39
6567;BME280;3317;43.994;22.878;2023-05-19T06:18:12;101330.63;;;17.93;73.93
6567;BME280;3317;43.994;22.878;2023-05-19T06:20:41;101380.25;;;18.37;73.46
6567;BME280;3317;43.994;22.878;2023-05-19T06:23:08;101384.19;;;18.49;73.54
6567;BME280;3317;43.994;22.878;2023-05-19T06:25:35;101378.22;;;18.61;73.20
6567;BME280;3317;43.994;22.878;2023-05-19T06:28:02;101383.41;;;18.70;73.02
6567;BME280;3317;43.994;22.878;2023-05-19T06:30:29;101330.53;;;18.47;72.42
6567;BME280;3317;43.994;22.878;2023-05-19T06:32:56;101388.09;;;18.92;72.41
6567;BME280;3317;43.994;22.878;2023-05-19T06:35:23;101384.88;;;19.03;71.88
6567;BME280;3317;43.994;22.878;2023-05-19T06:37:54;101389.63;;;19.16;71.50
6567;BME280;3317;43.994;22.878;2023-05-19T06:40:21;101374.56;;;19.27;71.46
6567;BME280;3317;43.994;22.878;2023-05-19T06:42:49;101398.03;;;19.51;71.52
6567;BME280;3317;43.994;22.878;2023-05-19T06:45:16;101393.56;;;19.72;71.43
6567;BME280;3317;43.994;22.878;2023-05-19T06:47:46;101395.25;;;19.95;71.06
6567;BME280;3317;43.994;22.878;2023-05-19T06:50:13;101403.88;;;20.20;71.22
6567;BME280;3317;43.994;22.878;2023-05-19T06:52:40;101408.88;;;20.45;71.07
6567;BME280;3317;43.994;22.878;2023-05-19T06:55:09;101396.28;;;20.64;68.79
6567;BME280;3317;43.994;22.878;2023-05-19T06:57:36;101400.63;;;20.87;66.97
6567;BME280;3317;43.994;22.878;2023-05-19T07:00:04;101388.59;;;21.02;65.83
6567;BME280;3317;43.994;22.878;2023-05-19T07:02:33;101404.34;;;21.35;64.83
6567;BME280;3317;43.994;22.878;2023-05-19T07:05:00;101404.34;;;21.55;64.55
6567;BME280;3317;43.994;22.878;2023-05-19T07:07:28;101409.06;;;21.82;63.66
6567;BME280;3317;43.994;22.878;2023-05-19T07:09:55;101388.06;;;21.94;63.23
6567;BME280;3317;43.994;22.878;2023-05-19T07:12:23;101402.63;;;22.35;62.65
6567;BME280;3317;43.994;22.878;2023-05-19T07:14:51;101410.44;;;22.58;60.58
6567;BME280;3317;43.994;22.878;2023-05-19T07:17:18;101402.50;;;22.75;59.85
6567;BME280;3317;43.994;22.878;2023-05-19T07:19:45;101407.66;;;23.04;58.45
6567;BME280;3317;43.994;22.878;2023-05-19T07:22:12;101390.16;;;23.17;57.43
6567;BME280;3317;43.994;22.878;2023-05-19T07:24:39;101400.59;;;23.47;56.92
6567;BME280;3317;43.994;22.878;2023-05-19T07:27:06;101397.25;;;23.70;55.83
6567;BME280;3317;43.994;22.878;2023-05-19T07:29:35;101391.00;;;24.00;55.45
6567;BME280;3317;43.994;22.878;2023-05-19T07:32:03;101382.06;;;24.24;54.19
6567;BME280;3317;43.994;22.878;2023-05-19T07:34:30;101387.66;;;24.54;54.72
6567;BME280;3317;43.994;22.878;2023-05-19T07:36:57;101374.72;;;24.67;50.87
6567;BME280;3317;43.994;22.878;2023-05-19T07:39:24;101358.88;;;24.74;50.39
6567;BME280;3317;43.994;22.878;2023-05-19T07:41:54;101389.75;;;25.08;49.51
6567;BME280;3317;43.994;22.878;2023-05-19T07:44:21;101387.66;;;25.34;50.13
6567;BME280;3317;43.994;22.878;2023-05-19T07:46:49;101387.97;;;25.56;50.79
6567;BME280;3317;43.994;22.878;2023-05-19T07:49:16;101381.47;;;25.75;49.12
6567;BME280;3317;43.994;22.878;2023-05-19T07:51:43;101386.91;;;25.93;48.24
6567;BME280;3317;43.994;22.878;2023-05-19T07:54:10;101380.72;;;26.15;48.82
6567;BME280;3317;43.994;22.878;2023-05-19T07:56:37;101373.75;;;26.36;47.91
6567;BME280;3317;43.994;22.878;2023-05-19T07:59:05;101379.22;;;26.60;47.07
6567;BME280;3317;43.994;22.878;2023-05-19T08:01:32;101382.66;;;26.79;46.44
6567;BME280;3317;43.994;22.878;2023-05-19T08:04:00;101382.22;;;26.99;45.90
6567;BME280;3317;43.994;22.878;2023-05-19T08:06:28;101384.56;;;27.20;45.24
6567;BME280;3317;43.994;22.878;2023-05-19T08:08:56;101338.94;;;27.04;44.13
6567;BME280;3317;43.994;22.878;2023-05-19T08:11:24;101382.47;;;27.44;43.25
6567;BME280;3317;43.994;22.878;2023-05-19T08:13:52;101384.44;;;27.61;42.57
6567;BME280;3317;43.994;22.878;2023-05-19T08:16:19;101396.69;;;27.77;42.64
6567;BME280;3317;43.994;22.878;2023-05-19T08:18:46;101393.59;;;27.95;42.64
6567;BME280;3317;43.994;22.878;2023-05-19T08:21:14;101398.63;;;28.16;42.60
6567;BME280;3317;43.994;22.878;2023-05-19T08:23:41;101388.06;;;28.35;42.46
6567;BME280;3317;43.994;22.878;2023-05-19T08:26:08;101396.09;;;28.53;41.08
6567;BME280;3317;43.994;22.878;2023-05-19T08:28:35;101382.34;;;28.69;40.92
6567;BME280;3317;43.994;22.878;2023-05-19T08:31:02;101403.75;;;28.86;40.93
6567;BME280;3317;43.994;22.878;2023-05-19T08:33:29;101392.50;;;29.03;42.60
6567;BME280;3317;43.994;22.878;2023-05-19T08:35:57;101363.13;;;28.95;39.21
6567;BME280;3317;43.994;22.878;2023-05-19T08:38:26;101390.50;;;29.26;40.40
6567;BME280;3317;43.994;22.878;2023-05-19T08:40:53;101391.75;;;29.40;39.13
6567;BME280;3317;43.994;22.878;2023-05-19T08:43:20;101395.22;;;29.53;38.79
6567;BME280;3317;43.994;22.878;2023-05-19T08:45:48;101377.06;;;29.50;38.28
6567;BME280;3317;43.994;22.878;2023-05-19T08:48:16;101383.13;;;29.74;38.14
6567;BME280;3317;43.994;22.878;2023-05-19T08:50:50;101398.09;;;30.01;37.73
6567;BME280;3317;43.994;22.878;2023-05-19T08:53:26;101339.34;;;29.90;37.83
6567;BME280;3317;43.994;22.878;2023-05-19T08:56:00;101391.06;;;30.36;38.23
6567;BME280;3317;43.994;22.878;2023-05-19T08:58:29;101362.50;;;30.29;36.70
6567;BME280;3317;43.994;22.878;2023-05-19T09:00:59;101390.59;;;30.60;36.25
6567;BME280;3317;43.994;22.878;2023-05-19T09:03:28;101380.88;;;30.73;35.89
6567;BME280;3317;43.994;22.878;2023-05-19T09:05:55;101367.19;;;30.76;34.94
6567;BME280;3317;43.994;22.878;2023-05-19T09:08:22;101373.09;;;30.96;35.46
6567;BME280;3317;43.994;22.878;2023-05-19T09:10:51;101367.81;;;31.10;35.91
6567;BME280;3317;43.994;22.878;2023-05-19T09:13:18;101369.22;;;31.38;37.60
6567;BME280;3317;43.994;22.878;2023-05-19T09:15:45;101367.56;;;31.68;42.34
6567;BME280;3317;43.994;22.878;2023-05-19T09:18:13;101359.97;;;31.74;36.56
6567;BME280;3317;43.994;22.878;2023-05-19T09:20:42;101367.28;;;31.80;32.18
6567;BME280;3317;43.994;22.878;2023-05-19T09:23:12;101360.78;;;31.90;31.78
6567;BME280;3317;43.994;22.878;2023-05-19T09:25:45;101358.28;;;31.94;31.36
6567;BME280;3317;43.994;22.878;2023-05-19T09:28:22;101361.06;;;31.99;35.24
6567;BME280;3317;43.994;22.878;2023-05-19T09:30:57;101361.03;;;32.09;33.62
6567;BME280;3317;43.994;22.878;2023-05-19T09:33:25;101360.41;;;32.23;35.04
6567;BME280;3317;43.994;22.878;2023-05-19T09:35:53;101359.88;;;32.26;33.56
6567;BME280;3317;43.994;22.878;2023-05-19T09:38:21;101365.16;;;32.38;35.78
6567;BME280;3317;43.994;22.878;2023-05-19T09:40:48;101368.16;;;32.57;33.86
6567;BME280;3317;43.994;22.878;2023-05-19T09:43:17;101351.91;;;32.54;31.55
6567;BME280;3317;43.994;22.878;2023-05-19T09:45:44;101359.69;;;32.67;33.95
6567;BME280;3317;43.994;22.878;2023-05-19T09:48:13;101351.72;;;32.85;34.27
6567;BME280;3317;43.994;22.878;2023-05-19T09:50:41;101352.03;;;32.83;31.01
6567;BME280;3317;43.994;22.878;2023-05-19T09:53:12;101346.22;;;32.69;31.66
6567;BME280;3317;43.994;22.878;2023-05-19T09:55:39;101354.59;;;32.75;32.04
6567;BME280;3317;43.994;22.878;2023-05-19T09:58:07;101350.09;;;32.79;33.43
6567;BME280;3317;43.994;22.878;2023-05-19T10:00:36;101353.09;;;32.93;32.74
6567;BME280;3317;43.994;22.878;2023-05-19T10:03:05;101249.38;;;32.37;33.52
6567;BME280;3317;43.994;22.878;2023-05-19T10:05:33;101344.41;;;32.94;31.08
6567;BME280;3317;43.994;22.878;2023-05-19T10:08:00;101348.53;;;33.02;33.38
6567;BME280;3317;43.994;22.878;2023-05-19T10:10:32;101292.63;;;32.71;32.35
6567;BME280;3317;43.994;22.878;2023-05-19T10:13:00;101325.88;;;32.88;30.17
6567;BME280;3317;43.994;22.878;2023-05-19T10:15:29;101342.66;;;32.98;30.83
6567;BME280;3317;43.994;22.878;2023-05-19T10:17:58;101342.53;;;33.14;33.09
6567;BME280;3317;43.994;22.878;2023-05-19T10:20:26;101345.34;;;33.14;31.40
6567;BME280;3317;43.994;22.878;2023-05-19T10:22:53;101333.31;;;33.13;30.28
6567;BME280;3317;43.994;22.878;2023-05-19T10:25:20;101333.13;;;32.99;30.82
6567;BME280;3317;43.994;22.878;2023-05-19T10:27:50;101338.72;;;32.99;30.94
6567;BME280;3317;43.994;22.878;2023-05-19T10:30:24;101341.25;;;33.01;30.55
6567;BME280;3317;43.994;22.878;2023-05-19T10:32:53;101337.13;;;32.83;29.95
6567;BME280;3317;43.994;22.878;2023-05-19T10:38:31;101322.16;;;31.61;29.01
6567;BME280;3317;43.994;22.878;2023-05-19T10:41:04;101329.50;;;31.41;30.73
6567;BME280;3317;43.994;22.878;2023-05-19T10:43:55;101321.09;;;31.36;31.95
6567;BME280;3317;43.994;22.878;2023-05-19T10:46:28;101321.03;;;30.95;31.16
6567;BME280;3317;43.994;22.878;2023-05-19T10:48:56;101323.53;;;30.81;31.21
6567;BME280;3317;43.994;22.878;2023-05-19T10:51:29;101322.28;;;30.40;31.72
6567;BME280;3317;43.994;22.878;2023-05-19T10:53:57;101321.03;;;30.05;32.40
6567;BME280;3317;43.994;22.878;2023-05-19T10:56:28;101318.25;;;30.10;34.08
6567;BME280;3317;43.994;22.878;2023-05-19T10:58:57;101315.28;;;30.32;33.82
6567;BME280;3317;43.994;22.878;2023-05-19T11:01:29;101276.09;;;30.22;33.93
6567;BME280;3317;43.994;22.878;2023-05-19T11:04:03;101300.50;;;30.47;32.91
6567;BME280;3317;43.994;22.878;2023-05-19T11:06:33;101316.81;;;30.82;33.49
6567;BME280;3317;43.994;22.878;2023-05-19T11:09:10;101298.44;;;31.22;34.08
6567;BME280;3317;43.994;22.878;2023-05-19T11:11:46;101309.25;;;31.75;33.66
6567;BME280;3317;43.994;22.878;2023-05-19T11:14:14;101303.00;;;32.05;31.77
6567;BME280;3317;43.994;22.878;2023-05-19T11:16:45;101310.03;;;32.12;31.06
6567;BME280;3317;43.994;22.878;2023-05-19T11:19:17;101304.94;;;32.20;30.65
6567;BME280;3317;43.994;22.878;2023-05-19T11:21:51;101299.53;;;32.39;32.91
6567;BME280;3317;43.994;22.878;2023-05-19T11:24:32;101281.53;;;32.50;33.45
6567;BME280;3317;43.994;22.878;2023-05-19T11:27:18;101294.53;;;32.76;34.04
6567;BME280;3317;43.994;22.878;2023-05-19T11:29:46;101288.91;;;32.76;31.00
6567;BME280;3317;43.994;22.878;2023-05-19T11:32:14;101292.84;;;32.80;32.34
6567;BME280;3317;43.994;22.878;2023-05-19T11:34:43;101262.41;;;32.57;30.18
6567;BME280;3317;43.994;22.878;2023-05-19T11:37:13;101279.72;;;32.70;30.04
6567;BME280;3317;43.994;22.878;2023-05-19T11:39:40;101271.84;;;32.72;30.71
6567;BME280;3317;43.994;22.878;2023-05-19T11:42:08;101275.66;;;32.92;32.57
6567;BME280;3317;43.994;22.878;2023-05-19T11:44:36;101269.66;;;33.04;32.64
6567;BME280;3317;43.994;22.878;2023-05-19T11:47:03;101263.72;;;33.10;30.72
6567;BME280;3317;43.994;22.878;2023-05-19T11:49:31;101265.03;;;33.18;31.35
6567;BME280;3317;43.994;22.878;2023-05-19T11:51:59;101258.22;;;33.24;32.18
6567;BME280;3317;43.994;22.878;2023-05-19T11:54:31;101269.97;;;33.32;31.67
6567;BME280;3317;43.994;22.878;2023-05-19T11:57:02;101246.66;;;33.01;28.59
6567;BME280;3317;43.994;22.878;2023-05-19T11:59:30;101264.31;;;32.67;29.14
6567;BME280;3317;43.994;22.878;2023-05-19T12:02:00;101265.63;;;32.30;30.02
6567;BME280;3317;43.994;22.878;2023-05-19T12:04:29;101253.88;;;32.23;31.12
6567;BME280;3317;43.994;22.878;2023-05-19T12:06:56;101255.50;;;32.34;31.24
6567;BME280;3317;43.994;22.878;2023-05-19T12:09:23;101254.13;;;32.37;29.82
6567;BME280;3317;43.994;22.878;2023-05-19T12:11:53;101260.56;;;32.32;29.73
6567;BME280;3317;43.994;22.878;2023-05-19T12:14:20;101250.13;;;32.48;31.82
6567;BME280;3317;43.994;22.878;2023-05-19T12:16:48;101254.88;;;32.48;30.09
6567;BME280;3317;43.994;22.878;2023-05-19T12:19:15;101244.19;;;32.55;31.78
6567;BME280;3317;43.994;22.878;2023-05-19T12:21:42;101241.38;;;32.55;31.43
6567;BME280;3317;43.994;22.878;2023-05-19T12:24:10;101249.22;;;32.58;31.81
6567;BME280;3317;43.994;22.878;2023-05-19T12:26:37;101240.66;;;32.39;29.16
6567;BME280;3317;43.994;22.878;2023-05-19T12:29:06;101244.66;;;32.17;29.83
6567;BME280;3317;43.994;22.878;2023-05-19T12:31:33;101241.31;;;32.15;30.97
6567;BME280;3317;43.994;22.878;2023-05-19T12:34:00;101234.88;;;32.14;31.10
6567;BME280;3317;43.994;22.878;2023-05-19T12:36:28;101236.56;;;32.15;30.84
6567;BME280;3317;43.994;22.878;2023-05-19T12:38:56;101225.38;;;32.05;29.27
6567;BME280;3317;43.994;22.878;2023-05-19T12:41:23;101227.06;;;32.11;30.70
6567;BME280;3317;43.994;22.878;2023-05-19T12:43:52;101223.13;;;32.12;30.59
6567;BME280;3317;43.994;22.878;2023-05-19T12:46:21;101216.94;;;32.10;32.55
6567;BME280;3317;43.994;22.878;2023-05-19T12:48:48;101195.47;;;31.95;29.96
6567;BME280;3317;43.994;22.878;2023-05-19T12:51:16;101210.84;;;32.03;30.69
6567;BME280;3317;43.994;22.878;2023-05-19T12:53:43;101213.16;;;31.85;29.33
6567;BME280;3317;43.994;22.878;2023-05-19T12:56:11;101211.59;;;31.48;30.12
6567;BME280;3317;43.994;22.878;2023-05-19T12:58:39;101190.38;;;31.26;30.66
6567;BME280;3317;43.994;22.878;2023-05-19T13:01:11;101184.50;;;31.23;31.27
6567;BME280;3317;43.994;22.878;2023-05-19T13:03:42;101195.94;;;31.16;30.43
6567;BME280;3317;43.994;22.878;2023-05-19T13:06:09;101205.50;;;31.10;31.17
6567;BME280;3317;43.994;22.878;2023-05-19T13:08:37;101202.44;;;30.80;30.63
6567;BME280;3317;43.994;22.878;2023-05-19T13:11:04;101191.75;;;30.61;32.14
6567;BME280;3317;43.994;22.878;2023-05-19T13:13:32;101189.50;;;30.48;32.45